Time;durP1;ratioP1;P1;durP2;ratioP2;P2;SDS_P1;SDS_P2;PMS_P1;PMS_P2;Temp;Humidity;BMP_temperature;BMP_pressure;BME280_temperature;BME280_humidity;BME280_pressure;Samples;Min_cycle;Max_cycle;Signal;HPM_P1;HPM_P2
2021/10/15 00:02:24;;;;;;;55.50;21.82;;;;;;;6.55;100.00;101906.92;1641692;87;21010;-82
2021/10/15 00:04:49;;;;;;;54.90;21.62;;;;;;;6.55;100.00;101909.59;1641428;87;20986;-82
2021/10/15 00:07:15;;;;;;;52.45;21.95;;;;;;;6.54;100.00;101910.11;1641803;86;20923;-82
2021/10/15 00:09:41;;;;;;;56.13;21.82;;;;;;;6.55;100.00;101908.26;1641605;86;21103;-81
2021/10/15 00:12:07;;;;;;;49.58;21.33;;;;;;;6.57;100.00;101908.89;1641340;87;21006;-82
2021/10/15 00:14:33;;;;;;;55.25;22.55;;;;;;;6.58;100.00;101907.86;1641410;86;20935;-82
2021/10/15 00:16:59;;;;;;;50.05;21.87;;;;;;;6.56;100.00;101902.72;1639016;87;20916;-82
2021/10/15 00:19:25;;;;;;;60.30;23.30;;;;;;;6.56;100.00;101902.72;1641487;86;21670;-81
2021/10/15 00:21:51;;;;;;;61.42;25.55;;;;;;;6.58;100.00;101899.82;1641396;86;21895;-81
2021/10/15 00:24:17;;;;;;;61.77;24.52;;;;;;;6.56;100.00;101900.04;1641391;86;20919;-81
2021/10/15 00:26:42;;;;;;;57.00;23.47;;;;;;;6.53;100.00;101897.77;1641347;86;21006;-81
2021/10/15 00:29:09;;;;;;;64.60;23.60;;;;;;;6.52;100.00;101900.11;1641504;86;20962;-81
2021/10/15 00:31:36;;;;;;;58.17;23.20;;;;;;;6.52;100.00;101896.61;1641159;87;21046;-82
2021/10/15 00:34:02;;;;;;;56.92;21.75;;;;;;;6.54;100.00;101896.73;1641729;86;21079;-82
2021/10/15 00:36:28;;;;;;;61.88;23.52;;;;;;;6.53;100.00;101893.75;1641565;87;21015;-82
2021/10/15 00:38:53;;;;;;;55.78;22.87;;;;;;;6.54;100.00;101894.05;1641205;86;20939;-82
2021/10/15 00:41:20;;;;;;;57.55;23.50;;;;;;;6.56;100.00;101894.69;1641194;86;20876;-82
2021/10/15 00:44:05;;;;;;;62.15;24.65;;;;;;;6.56;100.00;101894.69;1641318;86;21030;-81
2021/10/15 00:46:32;;;;;;;50.28;22.17;;;;;;;6.54;100.00;101894.05;1641272;86;21035;-81
2021/10/15 00:48:59;;;;;;;53.85;22.15;;;;;;;6.53;100.00;101896.42;1641433;87;21171;-82
2021/10/15 00:51:25;;;;;;;51.08;21.23;;;;;;;6.55;100.00;101902.38;1641299;87;22238;-82
2021/10/15 00:53:52;;;;;;;61.53;22.42;;;;;;;6.55;100.00;101897.55;1641043;86;21527;-82
2021/10/15 00:56:19;;;;;;;54.45;22.90;;;;;;;6.54;100.00;101894.05;1641155;87;21065;-82
2021/10/15 00:58:45;;;;;;;64.82;21.85;;;;;;;6.55;100.00;101893.01;1641440;87;21176;-81
2021/10/15 01:01:11;;;;;;;51.90;20.45;;;;;;;6.50;100.00;101875.89;1641317;87;20938;-82
2021/10/15 01:03:37;;;;;;;55.95;22.35;;;;;;;6.50;100.00;101875.89;1641426;87;20939;-81
2021/10/15 01:06:04;;;;;;;52.67;20.72;;;;;;;6.57;100.00;101886.95;1641282;86;21010;-81
2021/10/15 01:08:30;;;;;;;53.25;21.12;;;;;;;6.53;100.00;101889.73;1641442;86;21007;-82
2021/10/15 01:10:56;;;;;;;51.80;20.05;;;;;;;6.51;100.00;101893.11;1641287;86;21592;-82
2021/10/15 01:13:23;;;;;;;57.90;22.70;;;;;;;6.52;100.00;101897.95;1641439;86;21055;-82
2021/10/15 01:15:48;;;;;;;60.23;21.85;;;;;;;6.50;100.00;101899.50;1648364;86;21054;-82
2021/10/15 01:18:15;;;;;;;58.05;22.07;;;;;;;6.52;100.00;101907.32;1641516;86;20860;-81
2021/10/15 01:20:42;;;;;;;64.58;24.05;;;;;;;6.54;100.00;101908.78;1641225;86;21098;-81
2021/10/15 01:23:08;;;;;;;63.23;22.17;;;;;;;6.54;100.00;101914.65;1640274;86;21081;-82
2021/10/15 01:25:35;;;;;;;63.42;23.92;;;;;;;6.54;100.00;101913.31;1641452;86;21440;-82
2021/10/15 01:28:02;;;;;;;56.68;22.27;;;;;;;6.55;100.00;101920.31;1641559;86;21027;-82
2021/10/15 01:30:29;;;;;;;65.75;22.87;;;;;;;6.57;100.00;101920.95;1641590;86;20987;-82
2021/10/15 01:32:55;;;;;;;55.98;22.35;;;;;;;6.58;100.00;101918.57;1640940;86;21318;-82
2021/10/15 01:35:21;;;;;;;56.75;22.35;;;;;;;6.55;100.00;101923.81;1640498;86;21625;-82
2021/10/15 01:37:46;;;;;;;53.35;21.95;;;;;;;6.54;100.00;101926.70;1641617;86;21069;-82
2021/10/15 01:40:12;;;;;;;61.25;23.77;;;;;;;6.56;100.00;101920.12;1641729;86;20954;-82
2021/10/15 01:42:54;;;;;;;56.92;22.65;;;;;;;6.59;100.00;101922.92;1641531;86;20948;-82
2021/10/15 01:45:26;;;;;;;55.25;21.90;;;;;;;6.58;100.00;101924.75;1655979;86;21014;-81
2021/10/15 01:47:54;;;;;;;58.17;22.13;;;;;;;6.58;100.00;101923.92;1630796;88;21028;-82
2021/10/15 01:50:22;;;;;;;54.77;22.02;;;;;;;6.55;100.00;101927.00;1630653;86;21230;-81
2021/10/15 01:52:50;;;;;;;57.00;22.35;;;;;;;6.55;100.00;101927.00;1630856;86;21611;-81
2021/10/15 01:55:17;;;;;;;57.38;22.60;;;;;;;6.57;100.00;101928.98;1630655;86;21662;-82
2021/10/15 01:57:43;;;;;;;50.95;21.90;;;;;;;6.60;100.00;101934.75;1630855;88;21073;-82
2021/10/15 02:00:12;;;;;;;56.20;21.77;;;;;;;6.60;100.00;101940.11;1630857;86;21100;-81
2021/10/15 02:02:39;;;;;;;52.08;21.07;;;;;;;6.57;100.00;101939.70;1630676;86;21098;-82
2021/10/15 02:05:08;;;;;;;59.85;22.58;;;;;;;6.57;100.00;101941.03;1630632;86;21107;-81
2021/10/15 02:07:34;;;;;;;53.85;21.50;;;;;;;6.62;100.00;101943.09;1630224;86;21082;-82
2021/10/15 02:10:00;;;;;;;55.30;22.05;;;;;;;6.65;100.00;101942.20;1630880;86;20957;-81
2021/10/15 02:12:25;;;;;;;49.60;20.35;;;;;;;6.66;100.00;101945.70;1630790;86;21884;-81
2021/10/15 02:14:51;;;;;;;52.73;19.70;;;;;;;6.69;100.00;101945.30;1630749;88;20951;-82
2021/10/15 02:17:18;;;;;;;51.58;19.92;;;;;;;6.71;100.00;101945.94;1630726;86;20915;-82
2021/10/15 02:19:44;;;;;;;52.75;21.73;;;;;;;6.75;100.00;101955.21;1630891;86;21087;-82
2021/10/15 02:22:10;;;;;;;57.45;22.00;;;;;;;6.78;100.00;101952.13;1630660;86;21510;-81
2021/10/15 02:24:36;;;;;;;47.40;20.20;;;;;;;6.78;100.00;101946.25;1630716;86;21085;-82
2021/10/15 02:27:03;;;;;;;49.35;21.70;;;;;;;6.79;100.00;101947.08;1630684;86;21035;-81
2021/10/15 02:29:29;;;;;;;49.93;20.43;;;;;;;6.84;100.00;101944.63;1630737;86;21047;-81
2021/10/15 02:31:56;;;;;;;57.65;21.65;;;;;;;6.87;100.00;101946.91;1630514;86;21134;-81
2021/10/15 02:34:22;;;;;;;48.42;20.72;;;;;;;6.88;100.00;101953.08;1630713;86;21705;-81
2021/10/15 02:36:48;;;;;;;55.23;21.68;;;;;;;6.89;100.00;101946.71;1630725;86;21177;-82
2021/10/15 02:39:14;;;;;;;47.60;20.85;;;;;;;6.90;100.00;101943.00;1631004;86;20931;-81
2021/10/15 02:41:41;;;;;;;57.48;23.45;;;;;;;6.91;100.00;101945.98;1630621;86;21097;-81
2021/10/15 02:44:10;;;;;;;59.45;23.15;;;;;;;6.89;100.00;101942.69;1640571;84;21625;-81
2021/10/15 02:46:39;;;;;;;54.77;21.80;;;;;;;6.86;100.00;101952.48;1641600;87;21038;-82
2021/10/15 02:49:07;;;;;;;52.70;20.92;;;;;;;6.85;100.00;101946.78;1641647;86;21915;-82
2021/10/15 02:51:34;;;;;;;51.02;21.80;;;;;;;6.88;100.00;101949.06;1641313;87;21113;-82
2021/10/15 02:54:02;;;;;;;48.90;20.82;;;;;;;6.85;100.00;101941.42;1641185;87;21005;-81
2021/10/15 02:56:29;;;;;;;53.68;21.40;;;;;;;6.86;100.00;101941.76;1641074;86;21058;-81
2021/10/15 02:58:55;;;;;;;51.05;21.52;;;;;;;6.86;100.00;101941.76;1641079;86;21057;-81
2021/10/15 03:01:22;;;;;;;55.50;23.20;;;;;;;6.90;100.00;101939.80;1641495;86;21192;-80
2021/10/15 03:03:48;;;;;;;57.75;21.77;;;;;;;6.94;100.00;101939.72;1641441;87;21059;-81
2021/10/15 03:06:15;;;;;;;60.83;22.62;;;;;;;6.97;100.00;101943.83;1641484;86;21030;-81
2021/10/15 03:08:41;;;;;;;58.00;22.67;;;;;;;6.96;100.00;101945.69;1641521;86;20995;-81
2021/10/15 03:11:07;;;;;;;59.77;22.70;;;;;;;7.00;100.00;101942.93;1641475;86;21102;-81
2021/10/15 03:13:34;;;;;;;59.08;21.75;;;;;;;7.00;100.00;101935.37;1641486;86;21100;-82
2021/10/15 03:16:00;;;;;;;60.67;22.32;;;;;;;7.00;100.00;101936.72;1641190;87;21528;-81
2021/10/15 03:18:26;;;;;;;52.40;21.80;;;;;;;6.99;100.00;101939.09;1641252;87;21050;-82
2021/10/15 03:20:52;;;;;;;51.33;21.20;;;;;;;7.04;100.00;101937.98;1641453;86;21626;-81
2021/10/15 03:23:18;;;;;;;51.80;20.50;;;;;;;7.04;100.00;101937.98;1641611;86;20903;-81
2021/10/15 03:25:44;;;;;;;56.35;21.42;;;;;;;6.96;100.00;101919.41;1641392;87;21154;-81
2021/10/15 03:28:10;;;;;;;55.15;20.95;;;;;;;6.91;100.00;101909.80;1641210;87;21554;-81
2021/10/15 03:30:37;;;;;;;64.20;23.05;;;;;;;7.09;100.00;101935.53;1641411;87;21053;-80
2021/10/15 03:33:05;;;;;;;64.90;23.12;;;;;;;7.11;100.00;101934.79;1641298;87;21538;-81
2021/10/15 03:35:32;;;;;;;55.75;21.37;;;;;;;7.11;100.00;101925.92;1640937;87;21166;-81
2021/10/15 03:37:58;;;;;;;50.50;21.35;;;;;;;7.12;100.00;101919.03;1641510;86;21270;-81
2021/10/15 03:40:24;;;;;;;50.35;20.23;;;;;;;7.10;100.00;101920.27;1648451;86;20983;-81
2021/10/15 03:42:50;;;;;;;59.95;21.95;;;;;;;7.09;100.00;101912.75;1641317;86;21867;-81
2021/10/15 03:45:16;;;;;;;63.65;21.82;;;;;;;7.09;100.00;101915.42;1641438;85;20880;-81
2021/10/15 03:47:42;;;;;;;64.45;21.77;;;;;;;7.10;100.00;101919.75;1641383;86;21119;-81
2021/10/15 03:50:09;;;;;;;62.45;22.40;;;;;;;7.12;100.00;101924.89;1641564;86;21879;-81
2021/10/15 03:52:36;;;;;;;61.92;21.37;;;;;;;7.12;100.00;101925.74;1641456;87;21019;-81
2021/10/15 03:55:04;;;;;;;54.98;21.33;;;;;;;7.13;100.00;101926.56;1626411;87;21035;-82
2021/10/15 03:57:30;;;;;;;59.58;21.65;;;;;;;7.13;100.00;101934.08;1641659;86;21452;-82
2021/10/15 03:59:56;;;;;;;60.63;21.17;;;;;;;7.13;100.00;101938.63;1641639;86;20911;-81
2021/10/15 04:02:23;;;;;;;53.28;19.23;;;;;;;7.11;100.00;101937.47;1641515;87;21102;-81
2021/10/15 04:04:50;;;;;;;56.15;20.50;;;;;;;7.12;100.00;101953.03;1641239;86;21047;-81
2021/10/15 04:07:16;;;;;;;56.30;20.15;;;;;;;7.09;100.00;101952.09;1641507;86;21042;-81
2021/10/15 04:09:42;;;;;;;52.00;19.75;;;;;;;7.00;100.00;101946.95;1641307;87;21026;-80
2021/10/15 04:12:08;;;;;;;55.50;21.17;;;;;;;6.99;100.00;101945.80;1641522;86;21041;-81
2021/10/15 04:14:34;;;;;;;50.23;20.88;;;;;;;7.00;100.00;101952.80;1641598;86;21098;-81
2021/10/15 04:16:59;;;;;;;60.35;21.68;;;;;;;6.97;100.00;101963.44;1641463;86;20958;-81
2021/10/15 04:19:25;;;;;;;53.63;22.98;;;;;;;6.97;100.00;101965.27;1641711;87;20987;-81
2021/10/15 04:21:51;;;;;;;58.68;22.45;;;;;;;6.99;100.00;101968.58;1626386;87;20975;-80
2021/10/15 04:24:17;;;;;;;56.83;21.87;;;;;;;7.01;100.00;101970.55;1641476;87;21105;-81
2021/10/15 04:26:43;;;;;;;55.80;21.55;;;;;;;7.02;100.00;101977.03;1641581;86;21104;-81
2021/10/15 04:29:08;;;;;;;57.15;22.65;;;;;;;7.07;100.00;101981.80;1641452;87;20915;-81
2021/10/15 04:31:34;;;;;;;50.98;20.57;;;;;;;7.09;100.00;101977.08;1641337;86;21057;-81
2021/10/15 04:34:00;;;;;;;52.88;20.72;;;;;;;7.10;100.00;101983.26;1641136;86;21034;-81
2021/10/15 04:36:28;;;;;;;47.27;20.85;;;;;;;7.12;100.00;101987.88;1641452;86;20911;-81
2021/10/15 04:38:54;;;;;;;48.95;19.30;;;;;;;7.15;100.00;101989.67;1646659;86;21174;-82
2021/10/15 04:41:20;;;;;;;48.52;20.90;;;;;;;7.19;100.00;101993.58;1647046;87;20892;-83
2021/10/15 04:43:46;;;;;;;47.30;19.50;;;;;;;7.24;100.00;101995.67;1646868;87;20937;-83
2021/10/15 04:46:12;;;;;;;50.95;20.32;;;;;;;7.28;100.00;101999.59;1654159;84;21060;-83
2021/10/15 04:48:38;;;;;;;47.80;19.73;;;;;;;7.34;100.00;102006.81;1659123;84;21019;-83
2021/10/15 04:51:04;;;;;;;46.55;19.67;;;;;;;7.45;100.00;102016.95;1659110;84;21036;-82
2021/10/15 04:53:30;;;;;;;50.58;21.05;;;;;;;7.45;100.00;102016.95;1658717;84;21607;-83
2021/10/15 04:55:56;;;;;;;48.70;20.30;;;;;;;7.48;100.00;102024.59;1659261;84;21048;-82
2021/10/15 04:58:22;;;;;;;50.55;20.10;;;;;;;7.58;100.00;102020.16;1659580;84;21530;-83
2021/10/15 05:00:48;;;;;;;56.30;20.90;;;;;;;7.58;100.00;102020.16;1659351;84;20935;-82
2021/10/15 05:03:16;;;;;;;53.90;20.35;;;;;;;7.64;100.00;102014.48;1659180;84;21320;-83
2021/10/15 05:05:43;;;;;;;52.27;21.05;;;;;;;7.65;100.00;102008.12;1658860;84;21120;-83
2021/10/15 05:08:15;;;;;;;53.02;21.68;;;;;;;7.67;100.00;102006.03;1658992;85;21059;-82
2021/10/15 05:10:42;;;;;;;57.80;23.10;;;;;;;7.68;100.00;102011.73;1637432;84;21471;-83
2021/10/15 05:13:12;;;;;;;51.15;22.17;;;;;;;7.74;100.00;102014.41;1636505;85;21122;-83
2021/10/15 05:15:41;;;;;;;63.78;23.98;;;;;;;7.78;100.00;102016.67;1658810;85;21160;-83
2021/10/15 05:20:40;;;;;;;55.10;22.32;;;;;;;7.76;100.00;102012.02;1598064;89;22006;-83
2021/10/15 05:23:07;;;;;;;56.60;23.90;;;;;;;7.78;100.00;102012.13;1600953;89;21090;-82
2021/10/15 05:25:34;;;;;;;60.52;24.90;;;;;;;7.82;100.00;102007.99;1600531;89;21156;-83
2021/10/15 05:28:00;;;;;;;57.53;23.35;;;;;;;7.84;100.00;102010.48;1600819;89;21203;-83
2021/10/15 05:30:27;;;;;;;59.38;23.45;;;;;;;7.90;100.00;102017.70;1601053;89;20999;-83
2021/10/15 05:32:53;;;;;;;58.63;24.10;;;;;;;7.94;100.00;102017.09;1600216;89;21073;-83
2021/10/15 05:35:20;;;;;;;57.10;22.73;;;;;;;7.99;100.00;102016.46;1601915;89;21109;-82
2021/10/15 05:37:46;;;;;;;53.58;22.10;;;;;;;8.00;100.00;102016.79;1603248;88;21132;-82
2021/10/15 05:40:13;;;;;;;47.88;21.07;;;;;;;8.01;100.00;102015.75;1603499;89;21187;-82
2021/10/15 05:42:50;;;;;;;51.83;21.42;;;;;;;8.04;100.00;102024.73;1602560;88;21282;-81
2021/10/15 05:45:17;;;;;;;57.55;22.77;;;;;;;8.11;100.00;102022.03;1603683;89;21267;-82
2021/10/15 05:47:43;;;;;;;55.00;23.10;;;;;;;8.17;100.00;102017.16;1605723;89;21113;-82
2021/10/15 05:50:10;;;;;;;46.73;19.00;;;;;;;8.22;100.00;102012.00;1584551;89;21653;-82
2021/10/15 05:52:43;;;;;;;49.77;20.60;;;;;;;8.28;100.00;102025.94;1605659;89;21264;-82
2021/10/15 06:00:27;;;;;;;52.03;20.85;;;;;;;8.45;100.00;102029.05;1605755;89;21121;-82
2021/10/15 06:02:54;;;;;;;55.28;21.65;;;;;;;8.58;100.00;102025.48;1605367;89;21074;-83
2021/10/15 06:16:02;;;;;;;47.53;20.62;;;;;;;8.79;100.00;102020.34;1605364;89;21079;-84
2021/10/15 06:18:36;;;;;;;53.73;20.80;;;;;;;8.88;100.00;102008.31;1658243;84;21744;-83
2021/10/15 06:20:56;;;;;;;53.87;21.27;;;;;;;8.94;100.00;102013.36;1664591;84;21081;-83
2021/10/15 06:23:22;;;;;;;47.83;20.62;;;;;;;9.00;100.00;102021.42;1669186;84;21013;-84
2021/10/15 06:25:48;;;;;;;45.48;20.57;;;;;;;9.08;100.00;102019.80;1664060;84;21506;-83
2021/10/15 06:28:14;;;;;;;51.45;21.60;;;;;;;9.19;100.00;102026.91;1668889;84;20876;-83
2021/10/15 06:30:41;;;;;;;49.60;21.00;;;;;;;9.33;100.00;102016.37;1669105;84;21852;-84
2021/10/15 06:33:10;;;;;;;50.83;21.17;;;;;;;9.43;100.00;102015.90;1668432;84;21121;-84
2021/10/15 06:35:36;;;;;;;49.23;20.45;;;;;;;9.57;100.00;102007.22;1668799;86;21097;-83
2021/10/15 06:38:06;;;;;;;49.00;19.57;;;;;;;9.77;100.00;102008.72;1644236;86;21067;-83
2021/10/15 06:40:30;;;;;;;47.73;19.87;;;;;;;10.03;100.00;102012.73;1665205;84;21061;-83
2021/10/15 06:42:56;;;;;;;47.40;19.40;;;;;;;10.26;100.00;102018.84;1669603;84;21555;-83
2021/10/15 06:45:22;;;;;;;46.63;19.65;;;;;;;10.45;100.00;102009.78;1667438;84;21034;-83
2021/10/15 06:47:50;;;;;;;54.40;20.60;;;;;;;10.64;100.00;102013.28;1626396;87;20942;-83
2021/10/15 06:50:16;;;;;;;45.23;20.12;;;;;;;10.93;100.00;102020.31;1641175;87;21530;-83
2021/10/15 06:52:48;;;;;;;50.52;21.07;;;;;;;11.22;100.00;102022.73;1641744;86;20979;-83
2021/10/15 06:55:21;;;;;;;50.08;20.17;;;;;;;11.59;100.00;102026.15;1641486;86;21038;-83
2021/10/15 06:57:47;;;;;;;45.25;20.65;;;;;;;11.97;100.00;102034.38;1641269;87;20962;-82
2021/10/15 07:00:16;;;;;;;39.63;18.32;;;;;;;12.44;100.00;102020.36;1641516;86;20960;-81
2021/10/15 07:02:42;;;;;;;50.85;19.60;;;;;;;12.91;100.00;102010.79;1641486;87;21043;-81
2021/10/15 07:05:11;;;;;;;47.85;18.27;;;;;;;13.49;100.00;102012.14;1641660;87;21096;-81
2021/10/15 07:07:38;;;;;;;42.95;18.45;;;;;;;13.83;100.00;102010.28;1641697;86;21847;-81
2021/10/15 07:10:07;;;;;;;39.18;18.17;;;;;;;14.20;100.00;102015.98;1641518;86;21079;-81
2021/10/15 07:12:42;;;;;;;38.70;18.65;;;;;;;14.85;100.00;101994.06;1593151;89;21098;-81
2021/10/15 07:15:12;;;;;;;36.23;18.05;;;;;;;16.04;100.00;102003.62;1555577;92;21148;-82
2021/10/15 07:17:38;;;;;;;34.27;18.15;;;;;;;18.50;100.00;102001.62;1555689;92;21221;-83
2021/10/15 07:20:07;;;;;;;38.08;17.87;;;;;;;20.57;100.00;101998.69;1556031;92;21169;-83
2021/10/15 07:22:33;;;;;;;31.82;17.15;;;;;;;22.25;100.00;101995.80;1555890;92;21134;-84
2021/10/15 07:25:00;;;;;;;34.55;17.73;;;;;;;23.95;100.00;101997.73;1556056;92;21055;-84
2021/10/15 07:27:26;;;;;;;30.88;17.62;;;;;;;25.27;100.00;101988.11;1555949;92;21111;-84
2021/10/15 07:29:52;;;;;;;35.03;18.98;;;;;;;26.70;82.08;101983.06;1556075;92;21685;-84
2021/10/15 07:32:18;;;;;;;34.03;19.23;;;;;;;27.88;69.17;101974.93;1556256;92;21088;-84
2021/10/15 07:34:44;;;;;;;34.30;18.00;;;;;;;28.73;55.29;101969.14;1555914;92;21091;-85
2021/10/15 07:37:10;;;;;;;30.92;17.87;;;;;;;29.56;53.28;101966.18;1556276;92;20940;-85
2021/10/15 07:39:36;;;;;;;29.87;17.15;;;;;;;30.57;50.22;101965.30;1555942;92;20900;-86
2021/10/15 07:42:03;;;;;;;26.40;16.20;;;;;;;31.19;43.85;101960.65;1556169;92;21123;-85
2021/10/15 07:44:31;;;;;;;29.15;15.95;;;;;;;31.77;40.67;101960.31;1534145;92;21287;-87
2021/10/15 07:46:57;;;;;;;24.23;15.43;;;;;;;31.47;38.17;101960.19;1520146;93;21464;-87
2021/10/15 07:49:23;;;;;;;30.17;14.30;;;;;;;31.48;38.71;101962.63;1523540;92;21092;-85
2021/10/15 07:51:50;;;;;;;21.25;13.62;;;;;;;32.21;37.22;101962.64;1523125;92;20989;-90
2021/10/15 07:54:16;;;;;;;23.83;14.40;;;;;;;32.23;36.15;101952.72;1531774;92;21465;-87
2021/10/15 07:56:43;;;;;;;23.52;14.58;;;;;;;32.00;34.80;101947.19;1512745;92;21714;-87
2021/10/15 07:59:09;;;;;;;21.75;14.30;;;;;;;31.54;34.45;101954.17;1521101;92;21836;-86
2021/10/15 08:01:34;;;;;;;25.27;15.45;;;;;;;31.51;33.48;101955.50;1524219;92;21108;-87
2021/10/15 08:04:04;;;;;;;21.85;14.10;;;;;;;30.30;32.37;101954.56;1525345;94;21787;-85
2021/10/15 08:06:30;;;;;;;25.60;14.70;;;;;;;30.20;35.08;101963.41;1562624;91;21165;-90
2021/10/15 08:08:56;;;;;;;22.13;13.58;;;;;;;31.15;34.19;101962.57;1584755;87;21852;-89
2021/10/15 08:11:22;;;;;;;19.05;12.58;;;;;;;31.91;33.85;101957.80;1635989;87;21015;-88
2021/10/15 08:13:48;;;;;;;22.42;12.63;;;;;;;32.18;31.51;101960.04;1635825;86;21066;-87
2021/10/15 08:16:14;;;;;;;22.75;13.18;;;;;;;32.22;29.41;101957.30;1636242;87;21587;-87
2021/10/15 08:18:40;;;;;;;25.17;14.28;;;;;;;32.42;29.64;101962.98;1636697;86;21027;-88
2021/10/15 08:21:06;;;;;;;22.85;14.35;;;;;;;32.42;29.64;101962.98;1636383;87;21493;-89
2021/10/15 08:23:32;;;;;;;22.82;14.55;;;;;;;32.07;29.66;101955.69;1636283;86;20931;-87
2021/10/15 08:25:58;;;;;;;20.80;13.45;;;;;;;32.79;29.21;101965.09;1636132;87;20961;-84
2021/10/15 08:28:26;;;;;;;19.77;12.85;;;;;;;32.81;28.11;101952.95;1607731;87;20905;-88
2021/10/15 08:30:53;;;;;;;20.43;12.78;;;;;;;32.67;28.31;101974.50;1636566;86;21070;-87
2021/10/15 08:33:20;;;;;;;22.48;12.75;;;;;;;32.45;27.42;101965.64;1636303;87;21841;-88
2021/10/15 08:35:46;;;;;;;20.08;11.75;;;;;;;32.30;27.27;101964.61;1630426;86;21062;-89
2021/10/15 08:38:19;;;;;;;16.77;10.85;;;;;;;32.03;26.45;101968.78;1640981;86;21043;-85
2021/10/15 08:40:47;;;;;;;22.65;12.07;;;;;;;30.49;26.96;101971.87;1636325;86;21042;-89
2021/10/15 08:43:13;;;;;;;19.55;12.00;;;;;;;28.97;28.06;101967.70;1635834;87;21575;-88
2021/10/15 08:45:40;;;;;;;26.20;12.85;;;;;;;27.66;29.19;101973.95;1622159;87;21028;-88
2021/10/15 08:48:07;;;;;;;23.75;12.70;;;;;;;26.44;30.56;101979.05;1658986;86;20965;-88
2021/10/15 08:50:35;;;;;;;25.77;13.62;;;;;;;25.41;31.91;101988.72;1664180;84;21179;-87
2021/10/15 08:53:03;;;;;;;25.02;12.73;;;;;;;24.50;32.11;101985.47;1664120;84;21377;-87
2021/10/15 08:55:30;;;;;;;26.60;13.58;;;;;;;23.84;32.68;101982.61;1664644;84;21038;-86
2021/10/15 08:57:59;;;;;;;25.48;13.15;;;;;;;22.93;34.06;101980.35;1664331;84;21122;-86
2021/10/15 09:00:37;;;;;;;26.17;13.20;;;;;;;22.29;34.70;101977.58;1664484;84;20955;-85
2021/10/15 09:03:15;;;;;;;32.40;16.80;;;;;;;21.55;35.89;101973.43;1664577;84;21076;-85
2021/10/15 09:05:52;;;;;;;53.85;25.90;;;;;;;20.97;37.11;101979.23;1664537;84;21144;-86
2021/10/15 09:08:19;;;;;;;51.53;25.08;;;;;;;20.51;36.76;101978.47;1575497;89;21109;-91
2021/10/15 09:10:45;;;;;;;56.45;29.27;;;;;;;19.83;37.16;101967.19;1567140;90;21603;-86
2021/10/15 09:13:19;;;;;;;45.98;22.58;;;;;;;19.48;38.62;101957.61;1573209;91;21003;-86
2021/10/15 09:15:50;;;;;;;30.48;14.10;;;;;;;19.36;38.78;101961.27;1572527;91;21051;-86
2021/10/15 09:18:30;;;;;;;26.95;12.63;;;;;;;19.15;38.27;101960.61;1572808;91;21653;-86
2021/10/15 09:21:02;;;;;;;32.65;13.43;;;;;;;18.87;37.81;101954.50;1572565;91;21055;-89
2021/10/15 09:23:49;;;;;;;28.42;13.20;;;;;;;18.53;39.29;101948.34;1537783;93;21882;-86
2021/10/15 09:26:17;;;;;;;28.50;13.83;;;;;;;18.32;39.51;101942.16;1540789;93;21072;-86
2021/10/15 09:28:47;;;;;;;33.02;14.60;;;;;;;18.09;40.56;101943.06;1541199;93;21661;-85
2021/10/15 09:31:15;;;;;;;34.05;14.60;;;;;;;17.89;40.97;101941.75;1541156;93;20993;-85
2021/10/15 09:33:56;;;;;;;37.50;14.05;;;;;;;17.61;40.58;101934.94;1540944;93;21067;-85
2021/10/15 09:36:23;;;;;;;28.40;13.05;;;;;;;17.31;41.57;101936.58;1540736;93;21088;-86
2021/10/15 09:38:50;;;;;;;28.25;12.80;;;;;;;17.23;42.74;101940.65;1540753;93;21840;-85
2021/10/15 09:41:38;;;;;;;31.85;13.90;;;;;;;17.18;43.24;101935.22;1540997;93;21628;-85
2021/10/15 09:44:31;;;;;;;27.73;12.03;;;;;;;17.10;42.53;101930.30;1483247;96;21231;-84
2021/10/15 09:47:16;;;;;;;27.07;11.27;;;;;;;17.03;43.72;101939.30;1483346;95;21626;-85
2021/10/15 09:50:05;;;;;;;21.60;9.48;;;;;;;17.07;44.19;101934.93;1483091;96;21681;-85
2021/10/15 09:52:36;;;;;;;19.92;8.03;;;;;;;16.98;42.75;101933.83;1482495;93;21157;-85
2021/10/15 09:55:22;;;;;;;17.87;6.90;;;;;;;17.01;42.64;101929.20;1487329;93;21254;-87
2021/10/15 09:57:51;;;;;;;20.32;7.83;;;;;;;17.04;41.83;101930.03;1465543;96;21061;-86
2021/10/15 10:00:27;;;;;;;18.45;8.55;;;;;;;17.13;42.30;101926.22;1465742;97;21124;-86
2021/10/15 10:02:52;;;;;;;21.93;9.70;;;;;;;17.11;41.88;101916.95;1488508;94;21143;-87
2021/10/15 10:05:20;;;;;;;21.23;9.90;;;;;;;17.05;41.45;101922.12;1561904;90;21583;-89
2021/10/15 10:07:52;;;;;;;23.55;10.80;;;;;;;16.93;41.07;101922.38;1581472;90;21492;-90
2021/10/15 10:10:25;;;;;;;24.67;10.28;;;;;;;16.84;41.93;101916.38;1576060;89;21701;-89
2021/10/15 10:12:53;;;;;;;25.02;10.03;;;;;;;16.84;42.69;101909.56;1556991;90;21032;-87
2021/10/15 10:15:23;;;;;;;21.57;9.43;;;;;;;16.75;42.72;101899.16;1554138;90;21513;-89
2021/10/15 10:17:55;;;;;;;20.95;9.93;;;;;;;16.55;41.53;101897.75;1491520;94;21184;-88
2021/10/15 10:20:28;;;;;;;24.57;10.43;;;;;;;16.32;41.80;101886.79;1429672;100;21626;-89
2021/10/15 10:23:24;;;;;;;23.05;10.10;;;;;;;16.16;44.13;101889.19;1476933;95;21184;-88
2021/10/15 10:26:01;;;;;;;22.02;9.83;;;;;;;16.14;44.03;101882.64;1490857;95;21029;-88
2021/10/15 10:28:28;;;;;;;26.95;10.00;;;;;;;16.01;43.49;101863.55;1492288;94;21208;-88
2021/10/15 10:33:51;;;;;;;22.85;9.65;;;;;;;15.82;44.62;101882.75;1414562;100;21218;-90
2021/10/15 10:36:17;;;;;;;25.80;9.50;;;;;;;15.77;45.56;101865.08;1420930;100;21199;-89
2021/10/15 10:38:43;;;;;;;20.08;9.25;;;;;;;15.77;45.56;101865.08;1424094;99;21690;-88
2021/10/15 10:41:28;;;;;;;22.25;9.05;;;;;;;15.91;45.65;101874.37;1418479;100;21540;-89
2021/10/15 10:43:59;;;;;;;24.00;9.48;;;;;;;15.90;45.69;101855.07;1419383;99;21024;-88
2021/10/15 10:46:29;;;;;;;21.93;9.80;;;;;;;16.01;44.73;101874.44;1425595;99;21106;-89
2021/10/15 10:49:00;;;;;;;18.92;8.93;;;;;;;15.93;45.55;101873.57;1426719;99;21040;-88
2021/10/15 10:51:30;;;;;;;24.25;9.70;;;;;;;15.97;45.02;101865.18;1424463;100;21084;-89
2021/10/15 10:54:23;;;;;;;19.50;9.35;;;;;;;15.95;45.57;101865.98;1420646;100;21157;-88
2021/10/15 10:56:50;;;;;;;21.17;9.17;;;;;;;15.95;45.57;101865.98;1422483;99;21322;-88
2021/10/15 10:59:29;;;;;;;21.52;9.38;;;;;;;15.96;45.71;101859.99;1442931;99;21170;-86
2021/10/15 11:02:01;;;;;;;22.65;9.23;;;;;;;15.89;46.01;101861.05;1427757;99;21704;-86
2021/10/15 11:04:46;;;;;;;15.00;7.60;;;;;;;15.79;47.05;101842.50;1397501;101;21217;-83
2021/10/15 11:07:32;;;;;;;;;;;;;;;;;;;;;
2021/10/15 11:09:59;;;;;;;14.85;6.17;;;;;;;15.99;47.08;101860.82;1409367;101;21090;-87
2021/10/15 11:12:34;;;;;;;14.45;5.90;;;;;;;15.94;47.11;101850.73;1409364;100;21639;-86
2021/10/15 11:15:10;;;;;;;13.98;6.45;;;;;;;15.88;46.82;101858.06;1413328;100;21654;-83
2021/10/15 11:17:47;;;;;;;17.37;6.95;;;;;;;15.81;45.94;101855.30;1415479;101;21646;-86
2021/10/15 11:20:36;;;;;;;16.00;6.83;;;;;;;15.80;46.42;101857.20;1430602;99;21125;-84
2021/10/15 11:23:09;;;;;;;13.00;5.70;;;;;;;15.80;46.42;101857.20;1451677;96;21197;-84
2021/10/15 11:25:49;;;;;;;16.20;6.67;;;;;;;15.83;47.08;101849.88;1462226;96;21142;-86
2021/10/15 11:28:19;;;;;;;14.98;6.37;;;;;;;15.80;45.94;101855.03;1457736;96;21158;-82
2021/10/15 11:30:49;;;;;;;14.35;6.33;;;;;;;15.73;47.03;101831.33;1498044;92;21933;-85
2021/10/15 11:33:21;;;;;;;11.05;5.65;;;;;;;15.84;45.23;101851.50;1549662;92;21176;-81
2021/10/15 11:35:50;;;;;;;15.78;6.25;;;;;;;15.74;45.77;101856.91;1550931;90;21112;-84
2021/10/15 11:38:21;;;;;;;15.48;6.50;;;;;;;15.75;46.71;101850.92;1566452;90;21571;-85
2021/10/15 11:40:56;;;;;;;13.13;6.08;;;;;;;15.70;47.11;101842.73;1598466;86;21018;-85